Terminal Aerodrome Forecast
Issued by NWS St Louis, MO

Home | Current Version | Previous Version | Text Only | Print | Product List | Glossary On
Versions: 1 2 3 4 5 6 7 8 9 10 11 12 13 14 15 16 17 18 19 20 21 22 23 24 25 26 27 28 29 30 31
000
FTUS43 KLSX 301722
TAFCOU
TAF
KCOU 301722Z 3018/0118 30010KT P6SM BKN150
     FM010200 VRB04KT P6SM BKN100
     FM010800 11005KT 6SM TSRA OVC040CB
     FM011400 17009KT P6SM SHRA VCTS OVC040CB=

USA.gov is the U.S. government's official web portal to all federal, state and local government web resources and services.